sensor_id;sensor_type;location;lat;lon;timestamp;P1;durP1;ratioP1;P2;durP2;ratioP2
31770;SDS011;18343;50.152;8.182;2023-02-26T00:00:52;11.35;;;3.28;;
31770;SDS011;18343;50.152;8.182;2023-02-26T00:03:36;10.07;;;3.10;;
31770;SDS011;18343;50.152;8.182;2023-02-26T00:06:24;11.48;;;3.25;;
31770;SDS011;18343;50.152;8.182;2023-02-26T00:09:10;12.10;;;3.30;;
31770;SDS011;18343;50.152;8.182;2023-02-26T00:11:55;10.55;;;3.47;;
31770;SDS011;18343;50.152;8.182;2023-02-26T00:14:41;10.68;;;3.30;;
31770;SDS011;18343;50.152;8.182;2023-02-26T00:17:35;7.03;;;2.88;;
31770;SDS011;18343;50.152;8.182;2023-02-26T00:20:26;12.23;;;3.58;;
31770;SDS011;18343;50.152;8.182;2023-02-26T00:23:12;8.80;;;4.03;;
31770;SDS011;18343;50.152;8.182;2023-02-26T00:25:57;8.73;;;3.55;;
31770;SDS011;18343;50.152;8.182;2023-02-26T00:28:43;9.00;;;3.13;;
31770;SDS011;18343;50.152;8.182;2023-02-26T00:31:30;8.10;;;3.35;;
31770;SDS011;18343;50.152;8.182;2023-02-26T00:34:15;7.28;;;3.53;;
31770;SDS011;18343;50.152;8.182;2023-02-26T00:37:04;11.02;;;3.92;;
31770;SDS011;18343;50.152;8.182;2023-02-26T00:40:02;10.25;;;3.60;;
31770;SDS011;18343;50.152;8.182;2023-02-26T00:42:58;8.23;;;4.20;;
31770;SDS011;18343;50.152;8.182;2023-02-26T00:45:44;8.85;;;3.13;;
31770;SDS011;18343;50.152;8.182;2023-02-26T00:48:42;6.93;;;3.22;;
31770;SDS011;18343;50.152;8.182;2023-02-26T00:51:37;5.65;;;2.80;;
31770;SDS011;18343;50.152;8.182;2023-02-26T00:54:31;11.05;;;3.83;;
31770;SDS011;18343;50.152;8.182;2023-02-26T00:57:15;6.22;;;3.53;;
31770;SDS011;18343;50.152;8.182;2023-02-26T01:00:00;7.65;;;3.30;;
31770;SDS011;18343;50.152;8.182;2023-02-26T01:02:45;10.15;;;4.10;;
31770;SDS011;18343;50.152;8.182;2023-02-26T01:05:35;13.68;;;3.88;;
31770;SDS011;18343;50.152;8.182;2023-02-26T01:08:22;5.88;;;3.15;;
31770;SDS011;18343;50.152;8.182;2023-02-26T01:11:13;9.93;;;3.70;;
31770;SDS011;18343;50.152;8.182;2023-02-26T01:13:59;12.02;;;5.10;;
31770;SDS011;18343;50.152;8.182;2023-02-26T01:16:47;7.97;;;3.25;;
31770;SDS011;18343;50.152;8.182;2023-02-26T01:19:41;9.85;;;3.50;;
31770;SDS011;18343;50.152;8.182;2023-02-26T01:22:34;5.55;;;2.90;;
31770;SDS011;18343;50.152;8.182;2023-02-26T01:25:26;13.15;;;4.45;;
31770;SDS011;18343;50.152;8.182;2023-02-26T01:28:17;12.30;;;3.70;;
31770;SDS011;18343;50.152;8.182;2023-02-26T01:31:05;7.80;;;3.80;;
31770;SDS011;18343;50.152;8.182;2023-02-26T01:34:02;14.13;;;4.57;;
31770;SDS011;18343;50.152;8.182;2023-02-26T01:36:54;8.25;;;3.03;;
31770;SDS011;18343;50.152;8.182;2023-02-26T01:39:50;10.43;;;3.15;;
31770;SDS011;18343;50.152;8.182;2023-02-26T01:43:18;6.60;;;2.60;;
31770;SDS011;18343;50.152;8.182;2023-02-26T01:46:13;11.82;;;3.40;;
31770;SDS011;18343;50.152;8.182;2023-02-26T01:49:10;6.65;;;2.88;;
31770;SDS011;18343;50.152;8.182;2023-02-26T01:51:58;8.10;;;2.80;;
31770;SDS011;18343;50.152;8.182;2023-02-26T01:54:44;7.53;;;3.10;;
31770;SDS011;18343;50.152;8.182;2023-02-26T01:57:30;6.78;;;2.97;;
31770;SDS011;18343;50.152;8.182;2023-02-26T02:00:15;9.07;;;3.65;;
31770;SDS011;18343;50.152;8.182;2023-02-26T02:03:01;7.63;;;3.13;;
31770;SDS011;18343;50.152;8.182;2023-02-26T02:05:48;10.27;;;3.63;;
31770;SDS011;18343;50.152;8.182;2023-02-26T02:08:36;9.45;;;3.72;;
31770;SDS011;18343;50.152;8.182;2023-02-26T02:11:22;10.73;;;3.55;;
31770;SDS011;18343;50.152;8.182;2023-02-26T02:14:09;11.45;;;3.67;;
31770;SDS011;18343;50.152;8.182;2023-02-26T02:17:06;5.57;;;2.83;;
31770;SDS011;18343;50.152;8.182;2023-02-26T02:20:17;8.60;;;3.33;;
31770;SDS011;18343;50.152;8.182;2023-02-26T02:23:26;12.10;;;3.47;;
31770;SDS011;18343;50.152;8.182;2023-02-26T02:29:49;14.02;;;3.58;;
31770;SDS011;18343;50.152;8.182;2023-02-26T02:32:50;9.07;;;3.28;;
31770;SDS011;18343;50.152;8.182;2023-02-26T02:35:41;9.45;;;3.00;;
31770;SDS011;18343;50.152;8.182;2023-02-26T02:38:32;12.80;;;3.92;;
31770;SDS011;18343;50.152;8.182;2023-02-26T02:41:21;7.35;;;3.65;;
31770;SDS011;18343;50.152;8.182;2023-02-26T02:44:13;13.68;;;3.60;;
31770;SDS011;18343;50.152;8.182;2023-02-26T02:47:01;8.60;;;3.55;;
31770;SDS011;18343;50.152;8.182;2023-02-26T02:49:50;9.85;;;4.35;;
31770;SDS011;18343;50.152;8.182;2023-02-26T02:52:40;9.40;;;4.47;;
31770;SDS011;18343;50.152;8.182;2023-02-26T02:55:32;10.07;;;4.20;;
31770;SDS011;18343;50.152;8.182;2023-02-26T02:58:21;10.70;;;4.40;;
31770;SDS011;18343;50.152;8.182;2023-02-26T03:01:13;6.22;;;3.97;;
31770;SDS011;18343;50.152;8.182;2023-02-26T03:04:01;15.73;;;4.50;;
31770;SDS011;18343;50.152;8.182;2023-02-26T03:06:52;14.20;;;4.35;;
31770;SDS011;18343;50.152;8.182;2023-02-26T03:09:38;9.40;;;4.13;;
31770;SDS011;18343;50.152;8.182;2023-02-26T03:12:24;9.93;;;4.50;;
31770;SDS011;18343;50.152;8.182;2023-02-26T03:15:10;7.32;;;4.15;;
31770;SDS011;18343;50.152;8.182;2023-02-26T03:17:58;9.15;;;4.00;;
31770;SDS011;18343;50.152;8.182;2023-02-26T03:20:55;10.23;;;4.28;;
31770;SDS011;18343;50.152;8.182;2023-02-26T03:23:51;13.48;;;4.10;;
31770;SDS011;18343;50.152;8.182;2023-02-26T03:26:45;8.32;;;4.28;;
31770;SDS011;18343;50.152;8.182;2023-02-26T03:29:34;9.52;;;3.85;;
31770;SDS011;18343;50.152;8.182;2023-02-26T03:32:27;12.18;;;3.78;;
31770;SDS011;18343;50.152;8.182;2023-02-26T03:35:17;12.00;;;4.80;;
31770;SDS011;18343;50.152;8.182;2023-02-26T03:38:13;6.40;;;3.38;;
31770;SDS011;18343;50.152;8.182;2023-02-26T03:41:07;6.68;;;3.45;;
31770;SDS011;18343;50.152;8.182;2023-02-26T03:43:57;8.18;;;3.67;;
31770;SDS011;18343;50.152;8.182;2023-02-26T03:46:49;7.22;;;4.10;;
31770;SDS011;18343;50.152;8.182;2023-02-26T03:49:41;8.13;;;4.25;;
31770;SDS011;18343;50.152;8.182;2023-02-26T03:52:33;9.85;;;4.88;;
31770;SDS011;18343;50.152;8.182;2023-02-26T03:55:24;6.57;;;3.80;;
31770;SDS011;18343;50.152;8.182;2023-02-26T03:58:17;10.18;;;3.85;;
31770;SDS011;18343;50.152;8.182;2023-02-26T04:01:03;9.32;;;3.83;;
31770;SDS011;18343;50.152;8.182;2023-02-26T04:03:52;7.45;;;4.00;;
31770;SDS011;18343;50.152;8.182;2023-02-26T04:06:42;7.20;;;3.47;;
31770;SDS011;18343;50.152;8.182;2023-02-26T04:09:28;8.15;;;3.75;;
31770;SDS011;18343;50.152;8.182;2023-02-26T04:12:14;7.40;;;3.42;;
31770;SDS011;18343;50.152;8.182;2023-02-26T04:15:05;9.48;;;4.65;;
31770;SDS011;18343;50.152;8.182;2023-02-26T04:17:51;6.28;;;3.40;;
31770;SDS011;18343;50.152;8.182;2023-02-26T04:20:35;12.90;;;4.35;;
31770;SDS011;18343;50.152;8.182;2023-02-26T04:23:20;9.82;;;3.65;;
31770;SDS011;18343;50.152;8.182;2023-02-26T04:26:05;8.23;;;3.58;;
31770;SDS011;18343;50.152;8.182;2023-02-26T04:28:50;9.80;;;3.50;;
31770;SDS011;18343;50.152;8.182;2023-02-26T04:31:36;9.57;;;3.50;;
31770;SDS011;18343;50.152;8.182;2023-02-26T04:34:20;7.75;;;3.20;;
31770;SDS011;18343;50.152;8.182;2023-02-26T04:37:05;8.18;;;2.90;;
31770;SDS011;18343;50.152;8.182;2023-02-26T04:39:50;6.22;;;3.45;;
31770;SDS011;18343;50.152;8.182;2023-02-26T04:42:34;7.38;;;3.15;;
31770;SDS011;18343;50.152;8.182;2023-02-26T04:45:19;7.97;;;2.83;;
31770;SDS011;18343;50.152;8.182;2023-02-26T04:48:08;5.82;;;2.80;;
31770;SDS011;18343;50.152;8.182;2023-02-26T04:50:53;7.43;;;3.28;;
31770;SDS011;18343;50.152;8.182;2023-02-26T04:53:38;5.95;;;2.80;;
31770;SDS011;18343;50.152;8.182;2023-02-26T04:56:22;6.70;;;3.15;;
31770;SDS011;18343;50.152;8.182;2023-02-26T04:59:08;8.68;;;2.88;;
31770;SDS011;18343;50.152;8.182;2023-02-26T05:01:52;8.45;;;2.75;;
31770;SDS011;18343;50.152;8.182;2023-02-26T05:04:38;4.35;;;2.97;;
31770;SDS011;18343;50.152;8.182;2023-02-26T05:07:25;10.02;;;2.63;;
31770;SDS011;18343;50.152;8.182;2023-02-26T05:10:10;6.20;;;3.10;;
31770;SDS011;18343;50.152;8.182;2023-02-26T05:12:55;7.10;;;2.75;;
31770;SDS011;18343;50.152;8.182;2023-02-26T05:15:40;5.85;;;3.00;;
31770;SDS011;18343;50.152;8.182;2023-02-26T05:18:28;6.40;;;2.97;;
31770;SDS011;18343;50.152;8.182;2023-02-26T05:21:24;5.85;;;2.70;;
31770;SDS011;18343;50.152;8.182;2023-02-26T05:24:13;5.68;;;2.55;;
31770;SDS011;18343;50.152;8.182;2023-02-26T05:26:58;6.38;;;2.58;;
31770;SDS011;18343;50.152;8.182;2023-02-26T05:29:42;8.45;;;2.65;;
31770;SDS011;18343;50.152;8.182;2023-02-26T05:32:27;5.50;;;2.83;;
31770;SDS011;18343;50.152;8.182;2023-02-26T05:35:12;3.60;;;2.22;;
31770;SDS011;18343;50.152;8.182;2023-02-26T05:37:59;10.95;;;2.95;;
31770;SDS011;18343;50.152;8.182;2023-02-26T05:40:47;12.60;;;2.88;;
31770;SDS011;18343;50.152;8.182;2023-02-26T05:43:32;6.72;;;2.38;;
31770;SDS011;18343;50.152;8.182;2023-02-26T05:46:17;5.38;;;2.50;;
31770;SDS011;18343;50.152;8.182;2023-02-26T05:49:01;4.28;;;2.45;;
31770;SDS011;18343;50.152;8.182;2023-02-26T05:51:47;10.85;;;2.42;;
31770;SDS011;18343;50.152;8.182;2023-02-26T05:54:34;4.40;;;2.47;;
31770;SDS011;18343;50.152;8.182;2023-02-26T05:57:18;6.25;;;2.60;;
31770;SDS011;18343;50.152;8.182;2023-02-26T06:00:07;6.90;;;2.17;;
31770;SDS011;18343;50.152;8.182;2023-02-26T06:02:57;5.85;;;3.67;;
31770;SDS011;18343;50.152;8.182;2023-02-26T06:05:42;5.70;;;2.60;;
31770;SDS011;18343;50.152;8.182;2023-02-26T06:08:30;7.65;;;2.40;;
31770;SDS011;18343;50.152;8.182;2023-02-26T06:11:16;5.32;;;3.00;;
31770;SDS011;18343;50.152;8.182;2023-02-26T06:14:01;8.75;;;2.28;;
31770;SDS011;18343;50.152;8.182;2023-02-26T06:16:46;4.32;;;2.08;;
31770;SDS011;18343;50.152;8.182;2023-02-26T06:19:36;5.70;;;2.40;;
31770;SDS011;18343;50.152;8.182;2023-02-26T06:22:21;5.90;;;2.28;;
31770;SDS011;18343;50.152;8.182;2023-02-26T06:25:11;8.27;;;3.67;;
31770;SDS011;18343;50.152;8.182;2023-02-26T06:28:00;6.95;;;2.58;;
31770;SDS011;18343;50.152;8.182;2023-02-26T06:30:52;4.43;;;2.30;;
31770;SDS011;18343;50.152;8.182;2023-02-26T06:33:37;8.15;;;3.08;;
31770;SDS011;18343;50.152;8.182;2023-02-26T06:36:25;4.22;;;2.20;;
31770;SDS011;18343;50.152;8.182;2023-02-26T06:39:10;4.95;;;2.38;;
31770;SDS011;18343;50.152;8.182;2023-02-26T06:41:54;4.13;;;2.50;;
31770;SDS011;18343;50.152;8.182;2023-02-26T06:44:40;8.82;;;2.25;;
31770;SDS011;18343;50.152;8.182;2023-02-26T06:47:25;9.38;;;2.67;;
31770;SDS011;18343;50.152;8.182;2023-02-26T06:50:16;6.10;;;2.35;;
31770;SDS011;18343;50.152;8.182;2023-02-26T06:53:01;4.28;;;2.47;;
31770;SDS011;18343;50.152;8.182;2023-02-26T06:55:46;7.05;;;2.85;;
31770;SDS011;18343;50.152;8.182;2023-02-26T06:58:36;7.82;;;2.75;;
31770;SDS011;18343;50.152;8.182;2023-02-26T07:01:25;4.85;;;2.58;;
31770;SDS011;18343;50.152;8.182;2023-02-26T07:04:10;10.75;;;3.22;;
31770;SDS011;18343;50.152;8.182;2023-02-26T07:06:54;6.95;;;2.97;;
31770;SDS011;18343;50.152;8.182;2023-02-26T07:09:44;10.00;;;2.95;;
31770;SDS011;18343;50.152;8.182;2023-02-26T07:12:29;8.88;;;2.92;;
31770;SDS011;18343;50.152;8.182;2023-02-26T07:15:17;4.82;;;2.40;;
31770;SDS011;18343;50.152;8.182;2023-02-26T07:18:06;7.88;;;2.65;;
31770;SDS011;18343;50.152;8.182;2023-02-26T07:20:51;5.30;;;2.47;;
31770;SDS011;18343;50.152;8.182;2023-02-26T07:23:38;4.68;;;2.60;;
31770;SDS011;18343;50.152;8.182;2023-02-26T07:26:32;5.20;;;2.55;;
31770;SDS011;18343;50.152;8.182;2023-02-26T07:29:17;7.15;;;3.05;;
31770;SDS011;18343;50.152;8.182;2023-02-26T07:32:02;7.22;;;3.33;;
31770;SDS011;18343;50.152;8.182;2023-02-26T07:34:51;5.32;;;2.90;;
31770;SDS011;18343;50.152;8.182;2023-02-26T07:37:43;11.38;;;3.08;;
31770;SDS011;18343;50.152;8.182;2023-02-26T07:40:28;6.25;;;2.95;;
31770;SDS011;18343;50.152;8.182;2023-02-26T07:43:13;8.07;;;3.05;;
31770;SDS011;18343;50.152;8.182;2023-02-26T07:45:58;6.18;;;3.00;;
31770;SDS011;18343;50.152;8.182;2023-02-26T07:48:43;6.20;;;2.67;;
31770;SDS011;18343;50.152;8.182;2023-02-26T07:51:29;6.65;;;3.22;;
31770;SDS011;18343;50.152;8.182;2023-02-26T07:54:24;5.05;;;3.08;;
31770;SDS011;18343;50.152;8.182;2023-02-26T07:57:09;6.50;;;3.42;;
31770;SDS011;18343;50.152;8.182;2023-02-26T07:59:55;8.60;;;3.42;;
31770;SDS011;18343;50.152;8.182;2023-02-26T08:02:42;7.57;;;3.42;;
31770;SDS011;18343;50.152;8.182;2023-02-26T08:05:27;6.35;;;3.28;;
31770;SDS011;18343;50.152;8.182;2023-02-26T08:08:14;6.93;;;3.28;;
31770;SDS011;18343;50.152;8.182;2023-02-26T08:10:59;7.38;;;2.90;;
31770;SDS011;18343;50.152;8.182;2023-02-26T08:13:45;5.25;;;3.47;;
31770;SDS011;18343;50.152;8.182;2023-02-26T08:16:29;6.22;;;4.00;;
31770;SDS011;18343;50.152;8.182;2023-02-26T08:19:17;8.50;;;4.53;;
31770;SDS011;18343;50.152;8.182;2023-02-26T08:22:01;4.60;;;2.88;;
31770;SDS011;18343;50.152;8.182;2023-02-26T08:24:48;9.13;;;3.65;;
31770;SDS011;18343;50.152;8.182;2023-02-26T08:27:35;7.28;;;3.85;;
31770;SDS011;18343;50.152;8.182;2023-02-26T08:30:24;9.63;;;3.42;;
31770;SDS011;18343;50.152;8.182;2023-02-26T08:33:20;9.43;;;4.53;;
31770;SDS011;18343;50.152;8.182;2023-02-26T08:36:08;8.30;;;4.40;;
31770;SDS011;18343;50.152;8.182;2023-02-26T08:38:54;6.47;;;3.08;;
31770;SDS011;18343;50.152;8.182;2023-02-26T08:41:40;6.43;;;2.50;;
31770;SDS011;18343;50.152;8.182;2023-02-26T08:44:26;6.43;;;3.15;;
31770;SDS011;18343;50.152;8.182;2023-02-26T08:47:11;10.02;;;3.15;;
31770;SDS011;18343;50.152;8.182;2023-02-26T08:49:59;7.53;;;3.35;;
31770;SDS011;18343;50.152;8.182;2023-02-26T08:52:43;4.72;;;2.47;;
31770;SDS011;18343;50.152;8.182;2023-02-26T08:55:28;6.05;;;2.75;;
31770;SDS011;18343;50.152;8.182;2023-02-26T08:58:14;6.93;;;2.88;;
31770;SDS011;18343;50.152;8.182;2023-02-26T09:00:59;5.10;;;2.80;;
31770;SDS011;18343;50.152;8.182;2023-02-26T09:03:44;3.58;;;2.28;;
31770;SDS011;18343;50.152;8.182;2023-02-26T09:06:28;3.72;;;2.25;;
31770;SDS011;18343;50.152;8.182;2023-02-26T09:09:15;7.82;;;2.88;;
31770;SDS011;18343;50.152;8.182;2023-02-26T09:11:59;3.88;;;1.85;;
31770;SDS011;18343;50.152;8.182;2023-02-26T09:14:48;3.65;;;1.92;;
31770;SDS011;18343;50.152;8.182;2023-02-26T09:17:34;6.93;;;2.03;;
31770;SDS011;18343;50.152;8.182;2023-02-26T09:20:19;5.32;;;2.28;;
31770;SDS011;18343;50.152;8.182;2023-02-26T09:23:05;4.13;;;2.15;;
31770;SDS011;18343;50.152;8.182;2023-02-26T09:25:51;3.95;;;2.33;;
31770;SDS011;18343;50.152;8.182;2023-02-26T09:28:36;6.07;;;2.35;;
31770;SDS011;18343;50.152;8.182;2023-02-26T09:31:22;7.50;;;2.28;;
31770;SDS011;18343;50.152;8.182;2023-02-26T09:34:07;5.35;;;1.80;;
31770;SDS011;18343;50.152;8.182;2023-02-26T09:36:52;2.08;;;1.75;;
31770;SDS011;18343;50.152;8.182;2023-02-26T09:39:37;3.80;;;2.28;;
31770;SDS011;18343;50.152;8.182;2023-02-26T09:42:25;4.80;;;2.15;;
31770;SDS011;18343;50.152;8.182;2023-02-26T09:45:28;4.38;;;2.35;;
31770;SDS011;18343;50.152;8.182;2023-02-26T09:48:21;8.48;;;2.10;;
31770;SDS011;18343;50.152;8.182;2023-02-26T09:51:08;3.70;;;1.70;;
31770;SDS011;18343;50.152;8.182;2023-02-26T09:54:00;4.30;;;2.05;;
31770;SDS011;18343;50.152;8.182;2023-02-26T09:56:59;3.92;;;2.40;;
31770;SDS011;18343;50.152;8.182;2023-02-26T09:59:46;4.85;;;2.38;;
31770;SDS011;18343;50.152;8.182;2023-02-26T10:02:32;6.75;;;1.85;;
31770;SDS011;18343;50.152;8.182;2023-02-26T10:05:28;3.22;;;1.58;;
31770;SDS011;18343;50.152;8.182;2023-02-26T10:08:24;4.97;;;1.85;;
31770;SDS011;18343;50.152;8.182;2023-02-26T10:11:21;5.78;;;1.90;;
31770;SDS011;18343;50.152;8.182;2023-02-26T10:14:13;5.53;;;1.70;;
31770;SDS011;18343;50.152;8.182;2023-02-26T10:17:02;4.50;;;2.10;;
31770;SDS011;18343;50.152;8.182;2023-02-26T10:19:56;2.97;;;1.85;;
31770;SDS011;18343;50.152;8.182;2023-02-26T10:22:57;6.68;;;1.88;;
31770;SDS011;18343;50.152;8.182;2023-02-26T10:25:46;5.40;;;2.33;;
31770;SDS011;18343;50.152;8.182;2023-02-26T10:28:44;2.78;;;1.75;;
31770;SDS011;18343;50.152;8.182;2023-02-26T10:31:43;9.45;;;2.20;;
31770;SDS011;18343;50.152;8.182;2023-02-26T10:34:44;5.65;;;2.17;;
31770;SDS011;18343;50.152;8.182;2023-02-26T10:37:42;4.70;;;2.22;;
31770;SDS011;18343;50.152;8.182;2023-02-26T10:40:46;5.05;;;1.85;;
31770;SDS011;18343;50.152;8.182;2023-02-26T10:43:39;4.70;;;1.70;;
31770;SDS011;18343;50.152;8.182;2023-02-26T10:46:51;6.20;;;1.73;;
31770;SDS011;18343;50.152;8.182;2023-02-26T10:49:51;6.93;;;1.63;;
31770;SDS011;18343;50.152;8.182;2023-02-26T10:52:41;3.47;;;1.63;;
31770;SDS011;18343;50.152;8.182;2023-02-26T10:55:39;3.13;;;1.17;;
31770;SDS011;18343;50.152;8.182;2023-02-26T10:58:28;6.05;;;1.40;;
31770;SDS011;18343;50.152;8.182;2023-02-26T11:01:16;3.78;;;1.30;;
31770;SDS011;18343;50.152;8.182;2023-02-26T11:04:05;2.90;;;1.42;;
31770;SDS011;18343;50.152;8.182;2023-02-26T11:06:56;4.22;;;1.23;;
31770;SDS011;18343;50.152;8.182;2023-02-26T11:09:45;2.38;;;1.55;;
31770;SDS011;18343;50.152;8.182;2023-02-26T11:12:34;3.10;;;1.25;;
31770;SDS011;18343;50.152;8.182;2023-02-26T11:15:24;3.28;;;1.60;;
31770;SDS011;18343;50.152;8.182;2023-02-26T11:18:11;3.58;;;1.50;;
31770;SDS011;18343;50.152;8.182;2023-02-26T11:21:00;2.03;;;1.10;;
31770;SDS011;18343;50.152;8.182;2023-02-26T11:23:48;2.83;;;1.50;;
31770;SDS011;18343;50.152;8.182;2023-02-26T11:26:38;5.07;;;1.58;;
31770;SDS011;18343;50.152;8.182;2023-02-26T11:29:34;3.15;;;1.13;;
31770;SDS011;18343;50.152;8.182;2023-02-26T11:32:41;6.95;;;1.02;;
31770;SDS011;18343;50.152;8.182;2023-02-26T11:35:27;5.40;;;1.40;;
31770;SDS011;18343;50.152;8.182;2023-02-26T11:38:15;4.15;;;1.30;;
31770;SDS011;18343;50.152;8.182;2023-02-26T11:41:05;7.22;;;1.42;;
31770;SDS011;18343;50.152;8.182;2023-02-26T11:43:54;2.95;;;1.30;;
31770;SDS011;18343;50.152;8.182;2023-02-26T11:46:48;3.97;;;1.38;;
31770;SDS011;18343;50.152;8.182;2023-02-26T11:49:36;2.83;;;1.23;;
31770;SDS011;18343;50.152;8.182;2023-02-26T11:52:33;3.17;;;1.42;;
31770;SDS011;18343;50.152;8.182;2023-02-26T11:55:26;3.72;;;1.40;;
31770;SDS011;18343;50.152;8.182;2023-02-26T11:58:16;6.47;;;1.30;;
31770;SDS011;18343;50.152;8.182;2023-02-26T12:01:09;2.55;;;1.30;;
31770;SDS011;18343;50.152;8.182;2023-02-26T12:04:01;6.22;;;1.15;;
31770;SDS011;18343;50.152;8.182;2023-02-26T12:06:48;3.80;;;1.40;;
31770;SDS011;18343;50.152;8.182;2023-02-26T12:09:34;6.18;;;1.20;;
31770;SDS011;18343;50.152;8.182;2023-02-26T12:12:24;3.83;;;1.35;;
31770;SDS011;18343;50.152;8.182;2023-02-26T12:15:27;5.57;;;1.88;;
31770;SDS011;18343;50.152;8.182;2023-02-26T12:18:27;2.80;;;1.48;;
31770;SDS011;18343;50.152;8.182;2023-02-26T12:21:35;4.40;;;1.58;;
31770;SDS011;18343;50.152;8.182;2023-02-26T12:24:46;3.05;;;1.65;;
31770;SDS011;18343;50.152;8.182;2023-02-26T12:35:25;2.67;;;1.23;;
31770;SDS011;18343;50.152;8.182;2023-02-26T12:38:29;2.67;;;1.17;;
31770;SDS011;18343;50.152;8.182;2023-02-26T12:41:27;2.75;;;1.50;;
31770;SDS011;18343;50.152;8.182;2023-02-26T12:44:37;3.20;;;1.33;;
31770;SDS011;18343;50.152;8.182;2023-02-26T12:47:58;4.78;;;1.00;;
31770;SDS011;18343;50.152;8.182;2023-02-26T12:51:01;2.60;;;1.23;;
31770;SDS011;18343;50.152;8.182;2023-02-26T12:54:09;2.40;;;1.10;;
31770;SDS011;18343;50.152;8.182;2023-02-26T12:57:22;1.23;;;0.98;;
31770;SDS011;18343;50.152;8.182;2023-02-26T13:00:50;3.70;;;1.63;;
31770;SDS011;18343;50.152;8.182;2023-02-26T13:04:18;2.17;;;1.42;;
31770;SDS011;18343;50.152;8.182;2023-02-26T13:07:45;3.50;;;1.52;;
31770;SDS011;18343;50.152;8.182;2023-02-26T13:10:43;2.15;;;1.42;;
31770;SDS011;18343;50.152;8.182;2023-02-26T13:13:44;1.77;;;1.30;;
31770;SDS011;18343;50.152;8.182;2023-02-26T13:16:44;2.22;;;1.25;;
31770;SDS011;18343;50.152;8.182;2023-02-26T13:19:40;2.90;;;1.20;;
31770;SDS011;18343;50.152;8.182;2023-02-26T13:22:31;3.67;;;1.35;;
31770;SDS011;18343;50.152;8.182;2023-02-26T13:25:29;3.13;;;1.45;;
31770;SDS011;18343;50.152;8.182;2023-02-26T13:28:25;4.22;;;1.95;;
31770;SDS011;18343;50.152;8.182;2023-02-26T13:31:24;4.60;;;2.38;;
31770;SDS011;18343;50.152;8.182;2023-02-26T13:34:14;11.10;;;2.03;;
31770;SDS011;18343;50.152;8.182;2023-02-26T13:37:05;3.53;;;1.73;;
31770;SDS011;18343;50.152;8.182;2023-02-26T13:40:16;3.05;;;1.38;;
31770;SDS011;18343;50.152;8.182;2023-02-26T13:43:40;7.60;;;2.63;;
31770;SDS011;18343;50.152;8.182;2023-02-26T13:46:53;6.40;;;2.63;;
31770;SDS011;18343;50.152;8.182;2023-02-26T13:50:21;2.83;;;1.95;;
31770;SDS011;18343;50.152;8.182;2023-02-26T13:53:33;5.13;;;1.60;;
31770;SDS011;18343;50.152;8.182;2023-02-26T13:57:23;2.67;;;1.10;;
31770;SDS011;18343;50.152;8.182;2023-02-26T14:00:35;2.50;;;1.58;;
31770;SDS011;18343;50.152;8.182;2023-02-26T14:03:34;6.25;;;1.90;;
31770;SDS011;18343;50.152;8.182;2023-02-26T14:09:44;2.92;;;1.48;;
31770;SDS011;18343;50.152;8.182;2023-02-26T14:14:43;3.45;;;1.92;;
31770;SDS011;18343;50.152;8.182;2023-02-26T14:18:03;2.45;;;1.80;;
31770;SDS011;18343;50.152;8.182;2023-02-26T14:24:52;3.30;;;1.60;;
31770;SDS011;18343;50.152;8.182;2023-02-26T14:27:41;2.78;;;1.33;;
31770;SDS011;18343;50.152;8.182;2023-02-26T14:35:22;3.75;;;2.00;;
31770;SDS011;18343;50.152;8.182;2023-02-26T14:38:14;5.22;;;1.55;;
31770;SDS011;18343;50.152;8.182;2023-02-26T14:41:21;3.17;;;1.65;;
31770;SDS011;18343;50.152;8.182;2023-02-26T14:44:13;1.27;;;1.08;;
31770;SDS011;18343;50.152;8.182;2023-02-26T14:47:04;2.03;;;1.25;;
31770;SDS011;18343;50.152;8.182;2023-02-26T14:49:50;3.75;;;1.42;;
31770;SDS011;18343;50.152;8.182;2023-02-26T14:52:42;4.93;;;1.55;;
31770;SDS011;18343;50.152;8.182;2023-02-26T14:56:23;4.05;;;1.30;;
31770;SDS011;18343;50.152;8.182;2023-02-26T15:02:55;1.55;;;0.90;;
31770;SDS011;18343;50.152;8.182;2023-02-26T15:09:16;2.53;;;1.23;;
31770;SDS011;18343;50.152;8.182;2023-02-26T15:12:10;2.00;;;1.20;;
31770;SDS011;18343;50.152;8.182;2023-02-26T15:15:17;2.75;;;1.25;;
31770;SDS011;18343;50.152;8.182;2023-02-26T15:18:24;3.08;;;1.13;;
31770;SDS011;18343;50.152;8.182;2023-02-26T15:21:38;3.38;;;1.38;;
31770;SDS011;18343;50.152;8.182;2023-02-26T15:24:42;3.17;;;1.35;;
31770;SDS011;18343;50.152;8.182;2023-02-26T15:27:30;4.25;;;2.47;;
31770;SDS011;18343;50.152;8.182;2023-02-26T15:30:16;3.55;;;1.20;;
31770;SDS011;18343;50.152;8.182;2023-02-26T15:33:11;2.40;;;1.40;;
31770;SDS011;18343;50.152;8.182;2023-02-26T15:36:07;3.22;;;1.40;;
31770;SDS011;18343;50.152;8.182;2023-02-26T15:38:57;3.50;;;1.65;;
31770;SDS011;18343;50.152;8.182;2023-02-26T15:41:54;2.95;;;1.38;;
31770;SDS011;18343;50.152;8.182;2023-02-26T15:44:42;2.90;;;1.27;;
31770;SDS011;18343;50.152;8.182;2023-02-26T15:47:36;4.10;;;1.30;;
31770;SDS011;18343;50.152;8.182;2023-02-26T15:50:24;3.33;;;1.60;;
31770;SDS011;18343;50.152;8.182;2023-02-26T15:53:16;4.22;;;1.67;;
31770;SDS011;18343;50.152;8.182;2023-02-26T15:56:07;1.95;;;0.90;;
31770;SDS011;18343;50.152;8.182;2023-02-26T15:59:08;2.03;;;1.10;;
31770;SDS011;18343;50.152;8.182;2023-02-26T16:01:56;4.95;;;1.15;;
31770;SDS011;18343;50.152;8.182;2023-02-26T16:04:44;2.17;;;1.30;;
31770;SDS011;18343;50.152;8.182;2023-02-26T16:07:30;4.32;;;1.58;;
31770;SDS011;18343;50.152;8.182;2023-02-26T16:10:27;4.05;;;1.50;;
31770;SDS011;18343;50.152;8.182;2023-02-26T16:13:27;5.38;;;1.35;;
31770;SDS011;18343;50.152;8.182;2023-02-26T16:16:25;2.97;;;1.40;;
31770;SDS011;18343;50.152;8.182;2023-02-26T16:20:07;2.50;;;1.30;;
31770;SDS011;18343;50.152;8.182;2023-02-26T16:22:56;5.68;;;1.20;;
31770;SDS011;18343;50.152;8.182;2023-02-26T16:25:48;7.28;;;2.20;;
31770;SDS011;18343;50.152;8.182;2023-02-26T16:28:37;5.93;;;2.80;;
31770;SDS011;18343;50.152;8.182;2023-02-26T16:31:30;7.53;;;1.75;;
31770;SDS011;18343;50.152;8.182;2023-02-26T16:34:26;4.63;;;2.28;;
31770;SDS011;18343;50.152;8.182;2023-02-26T16:37:25;19.67;;;8.57;;
31770;SDS011;18343;50.152;8.182;2023-02-26T16:40:18;5.00;;;2.67;;
31770;SDS011;18343;50.152;8.182;2023-02-26T16:43:28;5.93;;;2.63;;
31770;SDS011;18343;50.152;8.182;2023-02-26T16:47:14;9.25;;;4.45;;
31770;SDS011;18343;50.152;8.182;2023-02-26T16:50:03;26.27;;;14.18;;
31770;SDS011;18343;50.152;8.182;2023-02-26T16:52:58;6.45;;;3.00;;
31770;SDS011;18343;50.152;8.182;2023-02-26T16:55:50;7.97;;;4.75;;
31770;SDS011;18343;50.152;8.182;2023-02-26T16:58:39;6.22;;;2.63;;
31770;SDS011;18343;50.152;8.182;2023-02-26T17:01:24;5.78;;;2.58;;
31770;SDS011;18343;50.152;8.182;2023-02-26T17:04:10;6.45;;;1.67;;
31770;SDS011;18343;50.152;8.182;2023-02-26T17:07:03;7.00;;;3.95;;
31770;SDS011;18343;50.152;8.182;2023-02-26T17:09:58;5.95;;;2.88;;
31770;SDS011;18343;50.152;8.182;2023-02-26T17:12:50;3.25;;;1.90;;
31770;SDS011;18343;50.152;8.182;2023-02-26T17:15:44;3.67;;;1.60;;
31770;SDS011;18343;50.152;8.182;2023-02-26T17:18:32;4.90;;;1.70;;
31770;SDS011;18343;50.152;8.182;2023-02-26T17:21:19;4.05;;;2.03;;
31770;SDS011;18343;50.152;8.182;2023-02-26T17:24:03;5.25;;;2.63;;
31770;SDS011;18343;50.152;8.182;2023-02-26T17:26:54;3.15;;;1.73;;
31770;SDS011;18343;50.152;8.182;2023-02-26T17:29:41;6.47;;;2.65;;
31770;SDS011;18343;50.152;8.182;2023-02-26T17:32:32;4.65;;;1.83;;
31770;SDS011;18343;50.152;8.182;2023-02-26T17:35:17;4.63;;;1.75;;
31770;SDS011;18343;50.152;8.182;2023-02-26T17:38:07;3.40;;;1.42;;
31770;SDS011;18343;50.152;8.182;2023-02-26T17:40:53;2.72;;;1.50;;
31770;SDS011;18343;50.152;8.182;2023-02-26T17:43:38;6.03;;;1.42;;
31770;SDS011;18343;50.152;8.182;2023-02-26T17:46:23;2.85;;;1.80;;